Time;durP1;ratioP1;P1;durP2;ratioP2;P2;SDS_P1;SDS_P2;PMS_P1;PMS_P2;Temp;Humidity;BMP_temperature;BMP_pressure;BME280_temperature;BME280_humidity;BME280_pressure;Samples;Min_cycle;Max_cycle;Signal;HPM_P1;HPM_P2
2021/10/04 00:00:15;;;;;;;0.47;0.13;;;15.40;99.90;;;;;;5011224;28;20080;-74
2021/10/04 00:02:42;;;;;;;1.02;0.22;;;15.50;99.90;;;;;;5010486;28;20133;-75
2021/10/04 00:05:08;;;;;;;1.27;0.10;;;15.50;99.90;;;;;;5010284;28;20026;-74
2021/10/04 00:07:34;;;;;;;1.23;0.43;;;15.50;99.90;;;;;;5010750;28;20018;-74
2021/10/04 00:10:00;;;;;;;0.63;0.10;;;15.50;99.90;;;;;;5010645;28;20106;-75
2021/10/04 00:12:26;;;;;;;1.65;0.10;;;15.50;99.90;;;;;;5011407;28;20022;-75
2021/10/04 00:14:52;;;;;;;0.10;0.08;;;15.50;99.90;;;;;;5010569;28;20033;-75
2021/10/04 00:17:17;;;;;;;0.30;0.00;;;15.50;99.90;;;;;;5011496;28;20368;-75
2021/10/04 00:19:43;;;;;;;0.20;0.00;;;15.40;99.90;;;;;;5010444;28;20129;-76
2021/10/04 00:22:09;;;;;;;1.02;0.10;;;15.30;99.90;;;;;;5008618;28;20073;-75
2021/10/04 00:24:34;;;;;;;0.40;0.10;;;15.30;99.90;;;;;;5008550;28;20021;-75
2021/10/04 00:27:00;;;;;;;0.13;0.03;;;15.30;99.90;;;;;;5011555;28;20045;-75
2021/10/04 00:29:26;;;;;;;0.20;0.00;;;15.40;99.90;;;;;;5007958;28;20604;-74
2021/10/04 00:31:52;;;;;;;0.20;0.10;;;15.30;99.90;;;;;;5008343;28;20037;-75
2021/10/04 00:34:17;;;;;;;0.82;0.00;;;15.20;99.90;;;;;;5011308;28;20459;-71
2021/10/04 00:36:43;;;;;;;0.52;0.20;;;15.10;99.90;;;;;;5011271;28;20018;-74
2021/10/04 00:39:09;;;;;;;0.57;0.00;;;15.10;99.90;;;;;;5009772;28;20199;-74
2021/10/04 00:41:35;;;;;;;0.50;0.00;;;15.00;99.90;;;;;;5011744;28;20089;-74
2021/10/04 00:44:01;;;;;;;0.30;0.20;;;14.90;99.90;;;;;;5010132;28;20037;-74
2021/10/04 00:46:27;;;;;;;0.08;0.00;;;15.00;99.90;;;;;;5011118;28;20494;-73
2021/10/04 00:48:53;;;;;;;0.22;0.10;;;14.90;99.90;;;;;;5011608;28;20030;-74
2021/10/04 00:51:20;;;;;;;0.10;0.08;;;15.00;99.90;;;;;;5009254;28;20574;-74
2021/10/04 00:53:51;;;;;;;1.65;0.10;;;14.90;99.90;;;;;;5009801;28;20117;-74
2021/10/04 00:56:17;;;;;;;0.25;0.00;;;14.90;99.90;;;;;;5010806;28;20029;-74
2021/10/04 00:58:44;;;;;;;0.00;0.00;;;14.80;99.90;;;;;;5009861;28;20048;-73
2021/10/04 01:01:10;;;;;;;0.68;0.20;;;14.90;99.90;;;;;;5010781;28;20088;-74
2021/10/04 01:03:37;;;;;;;0.73;0.00;;;14.90;99.90;;;;;;5011132;28;20459;-73
2021/10/04 01:06:03;;;;;;;1.65;0.10;;;14.80;99.90;;;;;;5015311;28;20025;-73
2021/10/04 01:08:29;;;;;;;0.32;0.00;;;14.70;99.90;;;;;;5013331;28;20045;-73
2021/10/04 01:10:55;;;;;;;0.63;0.10;;;14.80;99.90;;;;;;5014847;28;20162;-73
2021/10/04 01:13:21;;;;;;;0.63;0.10;;;14.80;99.90;;;;;;5013316;28;20477;-74
2021/10/04 01:15:47;;;;;;;0.30;0.10;;;14.70;99.90;;;;;;5015157;28;20041;-73
2021/10/04 01:18:13;;;;;;;0.93;0.10;;;14.70;99.90;;;;;;5001130;28;20109;-73
2021/10/04 01:20:38;;;;;;;0.80;0.20;;;14.70;99.90;;;;;;4978656;28;20173;-73
2021/10/04 01:23:05;;;;;;;0.85;0.10;;;14.80;99.90;;;;;;4995664;28;20054;-73
2021/10/04 01:25:31;;;;;;;0.75;0.40;;;14.80;99.90;;;;;;4993449;28;20367;-73
2021/10/04 01:27:57;;;;;;;0.20;0.10;;;14.80;99.90;;;;;;4995402;28;20022;-72
2021/10/04 01:30:26;;;;;;;0.38;0.20;;;14.90;99.90;;;;;;4993397;28;20438;-73
2021/10/04 01:32:53;;;;;;;2.08;0.13;;;14.90;99.90;;;;;;4993970;28;20125;-73
2021/10/04 01:35:20;;;;;;;1.15;0.10;;;14.90;99.90;;;;;;4993088;28;20034;-73
2021/10/04 01:37:46;;;;;;;0.50;0.10;;;14.90;99.90;;;;;;4993712;28;20027;-73
2021/10/04 01:40:13;;;;;;;3.05;0.38;;;14.90;99.90;;;;;;4994801;28;20029;-73
2021/10/04 01:42:39;;;;;;;0.57;0.15;;;15.00;99.90;;;;;;4993838;28;20022;-73
2021/10/04 01:45:08;;;;;;;1.35;0.38;;;14.90;99.90;;;;;;5009763;28;20018;-73
2021/10/04 01:47:34;;;;;;;0.20;0.10;;;14.90;99.90;;;;;;4993763;28;20026;-73
2021/10/04 01:50:00;;;;;;;0.40;0.20;;;15.00;99.90;;;;;;4994797;28;20033;-73
2021/10/04 01:52:25;;;;;;;0.50;0.10;;;14.90;99.90;;;;;;4994262;28;20349;-73
2021/10/04 01:54:51;;;;;;;0.63;0.28;;;14.90;99.90;;;;;;5010036;28;20045;-73
2021/10/04 01:57:17;;;;;;;0.20;0.10;;;14.90;99.90;;;;;;4993259;28;20372;-74
2021/10/04 01:59:43;;;;;;;1.45;0.17;;;14.90;99.90;;;;;;4994644;28;20053;-73
2021/10/04 02:02:08;;;;;;;0.28;0.10;;;14.90;99.90;;;;;;4994613;28;20050;-72
2021/10/04 02:04:34;;;;;;;0.10;0.10;;;14.90;99.90;;;;;;4994382;28;20026;-73
2021/10/04 02:07:00;;;;;;;0.20;0.10;;;14.70;99.90;;;;;;5012506;28;20184;-73
2021/10/04 02:09:25;;;;;;;0.52;0.38;;;14.80;99.90;;;;;;5013963;28;20017;-73
2021/10/04 02:11:51;;;;;;;0.10;0.10;;;14.80;99.90;;;;;;5014397;28;20349;-73
2021/10/04 02:14:17;;;;;;;0.40;0.20;;;15.00;99.90;;;;;;5012659;28;20321;-72
2021/10/04 02:16:43;;;;;;;0.20;0.10;;;14.90;99.90;;;;;;5011442;28;20114;-73
2021/10/04 02:19:09;;;;;;;0.30;0.10;;;14.90;99.90;;;;;;5012657;28;20100;-72
2021/10/04 02:21:35;;;;;;;0.55;0.10;;;15.00;99.90;;;;;;5012142;28;20113;-72
2021/10/04 02:24:02;;;;;;;1.95;0.10;;;14.80;99.90;;;;;;5013893;28;20026;-72
2021/10/04 02:26:27;;;;;;;1.45;0.43;;;14.80;99.90;;;;;;5011834;28;20029;-72
2021/10/04 02:28:53;;;;;;;1.85;0.30;;;14.70;99.90;;;;;;5012318;28;20029;-72
2021/10/04 02:31:19;;;;;;;1.80;0.20;;;14.60;99.90;;;;;;5012998;28;20065;-72
2021/10/04 02:33:44;;;;;;;0.60;0.20;;;14.60;99.90;;;;;;5011828;28;20032;-72
2021/10/04 02:36:10;;;;;;;0.45;0.10;;;14.70;99.90;;;;;;5013278;28;20060;-72
2021/10/04 02:38:36;;;;;;;0.38;0.30;;;14.70;99.90;;;;;;5013109;28;20447;-74
2021/10/04 02:41:01;;;;;;;0.28;0.20;;;14.80;99.90;;;;;;5014103;28;20029;-73
2021/10/04 02:43:27;;;;;;;0.40;0.20;;;14.80;99.90;;;;;;5011647;28;20482;-74
2021/10/04 02:45:53;;;;;;;0.52;0.22;;;14.80;99.90;;;;;;5013337;28;20026;-73
2021/10/04 02:48:19;;;;;;;0.73;0.28;;;14.80;99.90;;;;;;5011409;28;20026;-74
2021/10/04 02:50:46;;;;;;;0.70;0.17;;;14.90;99.90;;;;;;5013334;28;20562;-72
2021/10/04 02:53:12;;;;;;;0.80;0.30;;;14.80;99.90;;;;;;5011865;28;20403;-72
2021/10/04 02:55:38;;;;;;;0.90;0.20;;;14.70;99.90;;;;;;5011502;28;20135;-72
2021/10/04 02:58:04;;;;;;;2.65;0.22;;;14.70;99.90;;;;;;5011619;28;20026;-73
2021/10/04 03:00:33;;;;;;;0.40;0.40;;;14.70;99.90;;;;;;5011283;28;20113;-72
2021/10/04 03:03:00;;;;;;;0.38;0.15;;;14.70;99.90;;;;;;5011339;28;20383;-72
2021/10/04 03:05:25;;;;;;;2.58;0.30;;;14.80;99.90;;;;;;5010865;28;20021;-72
2021/10/04 03:07:51;;;;;;;0.60;0.40;;;14.80;99.90;;;;;;5012659;28;20037;-73
2021/10/04 03:10:17;;;;;;;0.85;0.50;;;14.60;99.90;;;;;;5012307;28;20443;-72
2021/10/04 03:12:42;;;;;;;0.57;0.32;;;14.50;99.90;;;;;;5012846;28;20114;-72
2021/10/04 03:15:08;;;;;;;2.13;0.30;;;14.40;99.90;;;;;;5011443;28;20030;-72
2021/10/04 03:17:34;;;;;;;1.05;0.65;;;14.40;99.90;;;;;;5012267;28;20391;-72
2021/10/04 03:19:59;;;;;;;2.38;0.50;;;14.50;99.90;;;;;;5012407;28;20030;-72
2021/10/04 03:22:25;;;;;;;3.67;0.63;;;14.40;99.90;;;;;;5010789;28;20022;-72
2021/10/04 03:24:51;;;;;;;2.08;0.80;;;14.50;99.90;;;;;;5012362;28;20029;-72
2021/10/04 03:27:17;;;;;;;2.08;0.50;;;14.30;99.90;;;;;;5010281;28;20025;-72
2021/10/04 03:29:42;;;;;;;4.63;1.00;;;14.40;99.90;;;;;;5012310;28;20105;-72
2021/10/04 03:32:08;;;;;;;1.30;0.60;;;14.40;99.90;;;;;;5011202;28;20336;-72
2021/10/04 03:34:34;;;;;;;0.70;0.70;;;14.40;99.90;;;;;;5010811;28;20371;-72
2021/10/04 03:37:00;;;;;;;0.90;0.70;;;14.30;99.90;;;;;;5011309;28;20033;-73
2021/10/04 03:39:27;;;;;;;1.92;0.50;;;14.40;99.90;;;;;;5012100;28;20017;-73
2021/10/04 03:41:52;;;;;;;0.95;0.70;;;14.30;99.90;;;;;;5011210;28;20069;-73
2021/10/04 03:44:18;;;;;;;1.33;0.88;;;14.30;99.90;;;;;;5011999;28;20465;-73
2021/10/04 03:46:44;;;;;;;1.08;0.98;;;14.30;99.90;;;;;;5012573;28;20396;-73
2021/10/04 03:49:10;;;;;;;1.50;1.35;;;14.30;99.90;;;;;;5012442;28;20446;-72
2021/10/04 03:51:36;;;;;;;3.00;1.00;;;14.20;99.90;;;;;;5010492;28;20053;-72
2021/10/04 03:54:02;;;;;;;2.33;0.98;;;14.20;99.90;;;;;;5011044;28;20030;-72
2021/10/04 03:56:28;;;;;;;1.58;1.20;;;14.30;99.90;;;;;;5011823;28;20097;-73
2021/10/04 03:58:53;;;;;;;1.58;1.45;;;14.30;99.90;;;;;;5012199;28;20060;-72
2021/10/04 04:01:19;;;;;;;2.08;1.10;;;14.30;99.90;;;;;;5010502;28;20076;-73
2021/10/04 04:03:47;;;;;;;1.38;1.15;;;14.30;99.90;;;;;;5010882;28;20082;-72
2021/10/04 04:06:13;;;;;;;3.35;1.30;;;14.30;99.90;;;;;;5010138;28;20057;-72
2021/10/04 04:08:38;;;;;;;1.88;1.65;;;14.30;99.90;;;;;;5011674;28;20057;-72
2021/10/04 04:11:04;;;;;;;3.70;2.08;;;14.30;99.90;;;;;;5010688;28;20481;-72
2021/10/04 04:13:30;;;;;;;3.13;1.70;;;14.30;99.90;;;;;;5009991;28;20029;-71
2021/10/04 04:15:55;;;;;;;3.00;2.20;;;14.30;99.90;;;;;;5010633;28;20176;-71
2021/10/04 04:18:21;;;;;;;2.55;2.20;;;14.30;99.90;;;;;;5009917;28;20053;-72
2021/10/04 04:20:47;;;;;;;2.92;2.30;;;14.30;99.90;;;;;;5010548;28;20038;-71
2021/10/04 04:23:12;;;;;;;4.30;2.40;;;14.20;99.90;;;;;;5010556;28;20030;-71
2021/10/04 04:25:38;;;;;;;3.33;2.25;;;14.20;99.90;;;;;;5009869;28;20022;-72
2021/10/04 04:28:04;;;;;;;3.63;2.22;;;14.10;99.90;;;;;;5010311;28;20026;-72
2021/10/04 04:30:30;;;;;;;2.78;2.45;;;14.10;99.90;;;;;;5009837;28;20108;-71
2021/10/04 04:32:56;;;;;;;3.90;2.70;;;13.90;99.90;;;;;;5011839;28;20481;-71
2021/10/04 04:35:21;;;;;;;4.35;3.17;;;13.90;99.90;;;;;;5009861;28;20018;-72
2021/10/04 04:37:47;;;;;;;3.25;2.80;;;13.90;99.90;;;;;;5009931;28;20466;-72
2021/10/04 04:40:16;;;;;;;4.15;3.53;;;13.90;99.90;;;;;;5010373;28;20022;-72
2021/10/04 04:42:43;;;;;;;4.68;3.08;;;13.90;99.90;;;;;;5009645;28;20097;-72
2021/10/04 04:45:11;;;;;;;3.75;3.35;;;13.90;99.90;;;;;;5011499;28;20467;-72
2021/10/04 04:47:37;;;;;;;4.00;3.55;;;13.90;99.90;;;;;;5010460;28;20052;-72
2021/10/04 04:50:05;;;;;;;5.47;3.38;;;14.00;99.90;;;;;;5011329;28;20029;-71
2021/10/04 04:52:31;;;;;;;3.67;3.05;;;13.90;99.90;;;;;;5009282;28;20382;-71
2021/10/04 04:54:57;;;;;;;5.53;3.40;;;14.00;99.90;;;;;;5011183;28;20022;-71
2021/10/04 04:57:22;;;;;;;9.57;3.40;;;14.00;99.90;;;;;;5010515;28;20022;-71
2021/10/04 04:59:48;;;;;;;5.65;3.60;;;14.00;99.90;;;;;;5009946;28;20026;-72
2021/10/04 05:02:14;;;;;;;7.10;3.15;;;14.00;99.90;;;;;;5009831;28;20093;-71
2021/10/04 05:04:39;;;;;;;5.00;3.05;;;13.90;99.90;;;;;;5009486;28;20025;-71
2021/10/04 05:07:05;;;;;;;7.70;3.28;;;13.90;99.90;;;;;;5010053;28;20086;-70
2021/10/04 05:09:31;;;;;;;6.05;3.08;;;14.00;99.90;;;;;;5009288;28;20225;-71
2021/10/04 05:11:56;;;;;;;6.10;4.05;;;14.00;99.90;;;;;;5010716;28;20471;-71
2021/10/04 05:14:22;;;;;;;7.10;3.90;;;13.90;99.90;;;;;;5010661;28;20464;-72
2021/10/04 05:16:49;;;;;;;4.40;3.92;;;14.00;99.90;;;;;;5011105;28;20022;-71
2021/10/04 05:19:15;;;;;;;4.65;3.85;;;13.90;99.90;;;;;;5009544;28;20058;-71
2021/10/04 05:21:41;;;;;;;5.97;4.07;;;13.80;99.90;;;;;;5009432;28;20803;-72
2021/10/04 05:24:07;;;;;;;4.18;3.78;;;13.80;99.90;;;;;;5010001;28;20050;-72
2021/10/04 05:26:33;;;;;;;4.65;4.13;;;13.60;99.90;;;;;;5009064;28;20102;-71
2021/10/04 05:28:59;;;;;;;5.90;4.40;;;13.70;99.90;;;;;;5011006;28;20103;-71
2021/10/04 05:31:25;;;;;;;7.80;4.82;;;13.70;99.90;;;;;;5008943;28;20463;-72
2021/10/04 05:33:50;;;;;;;5.43;3.50;;;13.60;99.90;;;;;;5009647;28;20030;-71
2021/10/04 05:36:17;;;;;;;6.00;4.50;;;13.80;99.90;;;;;;5009117;28;20049;-71
2021/10/04 05:38:43;;;;;;;6.05;4.28;;;13.80;99.90;;;;;;5008675;28;20490;-71
2021/10/04 05:41:10;;;;;;;5.72;3.90;;;13.80;99.90;;;;;;5010497;28;20082;-71
2021/10/04 05:43:36;;;;;;;8.38;4.40;;;13.80;99.90;;;;;;5008770;28;20034;-72
2021/10/04 05:46:02;;;;;;;5.22;3.67;;;13.90;99.90;;;;;;5010673;28;20133;-71
2021/10/04 05:48:28;;;;;;;7.03;4.28;;;13.90;99.90;;;;;;5008549;28;20018;-71
2021/10/04 05:50:54;;;;;;;5.47;4.35;;;13.90;99.90;;;;;;5012067;28;20177;-71
2021/10/04 05:53:20;;;;;;;6.75;4.22;;;13.90;99.90;;;;;;5012742;28;20049;-72
2021/10/04 05:55:47;;;;;;;5.43;4.10;;;13.90;99.90;;;;;;5012408;28;20048;-72
2021/10/04 05:58:13;;;;;;;4.57;4.10;;;13.90;99.90;;;;;;5012578;28;20463;-71
2021/10/04 06:00:39;;;;;;;7.05;4.15;;;13.80;99.90;;;;;;5012011;28;20030;-71
2021/10/04 06:03:05;;;;;;;6.18;4.45;;;13.80;99.90;;;;;;5012350;28;20053;-72
2021/10/04 06:05:30;;;;;;;5.72;4.25;;;13.90;99.90;;;;;;5011976;28;20464;-71
2021/10/04 06:07:56;;;;;;;8.57;4.65;;;13.90;99.90;;;;;;5013525;28;20079;-71
2021/10/04 06:10:22;;;;;;;9.38;4.90;;;13.80;99.90;;;;;;5013631;28;20079;-71
2021/10/04 06:12:47;;;;;;;6.28;4.93;;;13.70;99.90;;;;;;5013513;28;20037;-72
2021/10/04 06:15:14;;;;;;;7.35;4.63;;;13.70;99.90;;;;;;5012522;28;20061;-73
2021/10/04 06:17:40;;;;;;;6.65;5.03;;;13.70;99.90;;;;;;5012172;28;20021;-73
2021/10/04 06:20:08;;;;;;;5.20;4.53;;;13.70;99.90;;;;;;5013698;28;20029;-73
2021/10/04 06:22:34;;;;;;;6.25;4.88;;;13.70;99.90;;;;;;5013630;28;20034;-72
2021/10/04 06:25:00;;;;;;;5.72;4.85;;;13.60;99.90;;;;;;5012565;28;20028;-73
2021/10/04 06:27:26;;;;;;;7.88;5.18;;;13.60;99.90;;;;;;5013528;28;20018;-73
2021/10/04 06:29:52;;;;;;;5.78;4.82;;;13.70;99.90;;;;;;5012397;28;20018;-73
2021/10/04 06:32:17;;;;;;;6.63;5.10;;;13.70;99.90;;;;;;5012169;28;20060;-72
2021/10/04 06:34:43;;;;;;;6.35;4.82;;;13.80;99.90;;;;;;5011631;28;20447;-73
2021/10/04 06:37:09;;;;;;;6.68;5.63;;;13.80;99.90;;;;;;5013424;28;20472;-73
2021/10/04 06:39:35;;;;;;;6.60;4.50;;;13.80;99.90;;;;;;5011288;28;20076;-74
2021/10/04 06:42:00;;;;;;;6.13;4.63;;;13.80;99.90;;;;;;5013464;28;20029;-74
2021/10/04 06:44:26;;;;;;;9.63;4.78;;;13.70;99.90;;;;;;5011992;28;20455;-73
2021/10/04 06:46:52;;;;;;;6.72;4.95;;;13.90;99.90;;;;;;5013096;28;20103;-72
2021/10/04 06:49:18;;;;;;;5.78;5.03;;;13.80;99.90;;;;;;5013180;28;20022;-73
2021/10/04 06:51:44;;;;;;;6.45;5.78;;;13.80;99.90;;;;;;5010684;28;20141;-72
2021/10/04 06:54:11;;;;;;;5.45;4.90;;;13.80;99.90;;;;;;5012861;28;20029;-74
2021/10/04 06:56:37;;;;;;;5.43;4.25;;;13.80;99.90;;;;;;5011005;28;20093;-72
2021/10/04 06:59:03;;;;;;;6.05;4.35;;;13.80;99.90;;;;;;5011768;28;20049;-73
2021/10/04 07:01:28;;;;;;;5.60;4.57;;;13.90;99.90;;;;;;5010278;28;20430;-73
2021/10/04 07:03:54;;;;;;;5.18;4.68;;;13.80;99.90;;;;;;5013333;28;20092;-73
2021/10/04 07:06:20;;;;;;;8.57;5.05;;;13.70;99.90;;;;;;5012345;28;20029;-73
2021/10/04 07:08:45;;;;;;;4.57;4.13;;;13.80;99.90;;;;;;5010595;28;20048;-73
2021/10/04 07:11:11;;;;;;;8.00;4.95;;;13.80;99.90;;;;;;5010952;28;20053;-73
2021/10/04 07:13:37;;;;;;;4.60;4.20;;;13.80;99.90;;;;;;5010402;28;20022;-73
2021/10/04 07:16:04;;;;;;;5.30;4.80;;;13.60;99.90;;;;;;5011282;28;20474;-73
2021/10/04 07:18:29;;;;;;;6.57;4.47;;;13.70;99.90;;;;;;5012022;28;20033;-74
2021/10/04 07:20:56;;;;;;;7.43;5.15;;;13.80;99.90;;;;;;5011198;28;20026;-74
2021/10/04 07:23:22;;;;;;;4.60;3.88;;;13.80;99.90;;;;;;5011540;28;20099;-72
2021/10/04 07:25:47;;;;;;;4.38;3.97;;;13.60;99.90;;;;;;5013798;28;20507;-73
2021/10/04 07:28:13;;;;;;;6.70;3.65;;;13.60;99.90;;;;;;5012581;28;20034;-74
2021/10/04 07:30:39;;;;;;;7.47;3.75;;;13.60;99.90;;;;;;5010038;28;20408;-72
2021/10/04 07:33:06;;;;;;;4.40;3.65;;;13.50;99.90;;;;;;5010903;28;20029;-72
2021/10/04 07:35:32;;;;;;;4.95;4.15;;;13.50;99.90;;;;;;5010505;28;20048;-73
2021/10/04 07:37:59;;;;;;;4.80;3.65;;;13.50;99.90;;;;;;5011046;28;20432;-72
2021/10/04 07:40:26;;;;;;;5.13;3.38;;;13.60;99.90;;;;;;5011915;28;20025;-71
2021/10/04 07:42:52;;;;;;;4.60;2.70;;;13.60;99.90;;;;;;5010488;28;20032;-72
2021/10/04 07:45:18;;;;;;;3.38;3.05;;;13.70;99.90;;;;;;5012043;28;20022;-72
2021/10/04 07:47:45;;;;;;;3.42;2.95;;;13.80;99.90;;;;;;5010157;28;20037;-72
2021/10/04 07:50:14;;;;;;;7.00;3.65;;;13.90;99.90;;;;;;5012242;28;20091;-72
2021/10/04 07:52:41;;;;;;;8.32;4.05;;;13.90;99.90;;;;;;5010349;28;20430;-73
2021/10/04 07:55:08;;;;;;;6.22;3.95;;;13.90;99.90;;;;;;5010744;28;20022;-72
2021/10/04 07:57:34;;;;;;;6.03;3.08;;;13.90;99.90;;;;;;5010339;28;20032;-72
2021/10/04 08:00:00;;;;;;;5.03;3.50;;;13.90;99.90;;;;;;5010593;28;20065;-72
2021/10/04 08:02:26;;;;;;;5.13;3.53;;;13.90;99.90;;;;;;5010246;28;20111;-73
2021/10/04 08:04:52;;;;;;;4.35;3.58;;;13.90;99.90;;;;;;5010052;28;20034;-72
2021/10/04 08:07:17;;;;;;;4.00;3.00;;;13.90;99.90;;;;;;5012069;28;20022;-72
2021/10/04 08:09:43;;;;;;;3.58;3.13;;;14.00;99.90;;;;;;5011201;28;20437;-73
2021/10/04 08:12:09;;;;;;;3.40;3.10;;;14.00;99.90;;;;;;5010343;28;20064;-71
2021/10/04 08:14:36;;;;;;;4.18;3.20;;;14.00;99.90;;;;;;5011284;28;20041;-73
2021/10/04 08:17:02;;;;;;;4.57;4.05;;;14.00;99.90;;;;;;5011809;28;20439;-73
2021/10/04 08:19:29;;;;;;;4.45;3.75;;;14.00;99.90;;;;;;5010343;28;20025;-72
2021/10/04 08:21:54;;;;;;;5.05;3.35;;;14.00;99.90;;;;;;5009919;28;20104;-73
2021/10/04 08:24:20;;;;;;;3.92;3.63;;;14.20;99.90;;;;;;5010173;28;20455;-73
2021/10/04 08:26:46;;;;;;;7.75;3.70;;;14.10;99.90;;;;;;5011227;28;20021;-72
2021/10/04 08:29:13;;;;;;;6.68;4.10;;;14.20;99.90;;;;;;5009823;28;20545;-72
2021/10/04 08:31:39;;;;;;;5.05;3.97;;;14.20;99.90;;;;;;5009240;28;20473;-72
2021/10/04 08:34:06;;;;;;;5.82;4.25;;;14.20;99.90;;;;;;5010176;28;20029;-71
2021/10/04 08:36:33;;;;;;;5.32;3.97;;;14.20;99.90;;;;;;5010317;28;20057;-72
2021/10/04 08:38:59;;;;;;;4.85;3.83;;;14.20;99.90;;;;;;5010159;28;20017;-71
2021/10/04 08:41:25;;;;;;;4.75;4.32;;;14.10;99.90;;;;;;5009896;28;20040;-70
2021/10/04 08:43:53;;;;;;;5.85;4.80;;;14.20;99.90;;;;;;5009588;28;20021;-71
2021/10/04 08:46:20;;;;;;;7.35;4.75;;;14.20;99.90;;;;;;5009652;28;20026;-71
2021/10/04 08:48:48;;;;;;;4.97;4.32;;;14.20;99.90;;;;;;5010685;28;20159;-72
2021/10/04 08:51:14;;;;;;;4.88;4.15;;;14.20;99.90;;;;;;5009229;28;20037;-72
2021/10/04 08:53:40;;;;;;;9.18;4.65;;;14.20;99.90;;;;;;5010419;28;20517;-71
2021/10/04 08:56:08;;;;;;;9.85;4.70;;;14.30;99.90;;;;;;5009789;28;20026;-76
2021/10/04 08:58:35;;;;;;;5.35;4.22;;;14.50;99.90;;;;;;5009818;28;20030;-73
2021/10/04 09:01:04;;;;;;;7.30;4.53;;;14.70;99.90;;;;;;5009643;28;20117;-72
2021/10/04 09:03:50;;;;;;;4.70;4.10;;;14.70;99.90;;;;;;5011301;28;20067;-71
2021/10/04 09:06:36;;;;;;;4.45;3.90;;;14.60;99.90;;;;;;5009896;28;20562;-70
2021/10/04 09:09:08;;;;;;;5.65;4.85;;;14.90;99.90;;;;;;5009738;28;20021;-73
2021/10/04 09:11:45;;;;;;;6.18;4.50;;;14.70;99.90;;;;;;5009483;28;20319;-70
2021/10/04 09:14:18;;;;;;;4.32;3.92;;;14.60;99.90;;;;;;5009360;28;20022;-70
2021/10/04 09:16:50;;;;;;;6.35;4.10;;;14.40;99.90;;;;;;5009301;28;20041;-71
2021/10/04 09:19:30;;;;;;;4.55;4.13;;;14.40;99.90;;;;;;5009651;28;20478;-70
2021/10/04 09:22:09;;;;;;;4.65;4.18;;;14.30;99.90;;;;;;5010381;28;20032;-71
2021/10/04 09:24:37;;;;;;;5.53;4.78;;;14.40;99.90;;;;;;5010582;28;20091;-71
2021/10/04 09:27:15;;;;;;;4.43;3.83;;;14.30;99.90;;;;;;5013628;28;20080;-71
2021/10/04 09:29:48;;;;;;;7.10;4.45;;;14.40;99.90;;;;;;5013019;28;20478;-72
2021/10/04 09:32:34;;;;;;;4.80;4.40;;;14.40;99.90;;;;;;5014353;28;20114;-71
2021/10/04 09:35:13;;;;;;;4.90;4.13;;;14.50;99.90;;;;;;5012986;28;20030;-71
2021/10/04 09:37:39;;;;;;;5.18;4.65;;;14.50;99.90;;;;;;5012654;28;20045;-71
2021/10/04 09:40:06;;;;;;;5.72;4.50;;;14.40;99.90;;;;;;5013203;28;20056;-71
2021/10/04 09:42:39;;;;;;;6.60;4.05;;;14.50;99.90;;;;;;5014495;28;20018;-72
2021/10/04 09:45:06;;;;;;;4.88;4.28;;;14.50;99.90;;;;;;5012682;28;20071;-70
2021/10/04 09:47:40;;;;;;;4.40;4.00;;;14.40;99.90;;;;;;5013084;28;20087;-71
2021/10/04 09:50:11;;;;;;;4.95;4.45;;;14.40;99.90;;;;;;5013230;28;20341;-70
2021/10/04 09:52:40;;;;;;;;;;;14.50;99.90;;;;;;5013297;28;20184;-70
2021/10/04 09:55:37;;;;;;;4.88;4.25;;;14.50;99.90;;;;;;5012825;28;19909;-70
2021/10/04 09:58:16;;;;;;;7.13;3.83;;;14.50;99.90;;;;;;5012015;28;20026;-71
2021/10/04 10:01:03;;;;;;;4.93;4.43;;;14.60;99.90;;;;;;5011772;28;20030;-70
2021/10/04 10:03:41;;;;;;;4.53;4.13;;;14.40;99.90;;;;;;5012327;28;20046;-70
2021/10/04 10:06:07;;;;;;;5.63;4.60;;;14.40;99.90;;;;;;5012773;28;20041;-69
2021/10/04 10:08:35;;;;;;;5.15;4.65;;;14.40;99.90;;;;;;5012531;28;20446;-70
2021/10/04 10:11:06;;;;;;;4.93;4.43;;;14.50;99.90;;;;;;5011757;28;20018;-71
2021/10/04 10:13:34;;;;;;;7.95;5.07;;;14.40;99.90;;;;;;5012585;28;20017;-70
2021/10/04 10:16:05;;;;;;;6.00;4.80;;;14.40;99.90;;;;;;5011976;28;20462;-70
2021/10/04 10:18:54;;;;;;;6.60;4.95;;;14.50;99.90;;;;;;5012597;28;20163;-71
2021/10/04 10:21:29;;;;;;;6.38;5.47;;;14.40;99.90;;;;;;5012281;28;20064;-70
2021/10/04 10:24:00;;;;;;;5.75;4.70;;;14.40;99.90;;;;;;5011832;28;20064;-70
2021/10/04 10:26:32;;;;;;;5.95;4.22;;;14.30;99.90;;;;;;5013772;28;20018;-70
2021/10/04 10:29:23;;;;;;;6.43;4.82;;;14.30;99.90;;;;;;5011857;28;20080;-70
2021/10/04 10:31:57;;;;;;;5.35;4.50;;;14.30;99.90;;;;;;5009483;28;20491;-71
2021/10/04 10:34:35;;;;;;;5.53;4.97;;;14.50;99.90;;;;;;5011884;28;20077;-70
2021/10/04 10:37:17;;;;;;;8.85;5.88;;;14.60;99.90;;;;;;5010336;28;20026;-71
2021/10/04 10:40:11;;;;;;;9.60;6.03;;;14.60;99.90;;;;;;5011447;28;20026;-70
2021/10/04 10:42:41;;;;;;;7.75;5.28;;;14.90;99.90;;;;;;5013792;28;20030;-71
2021/10/04 10:45:08;;;;;;;8.52;6.00;;;14.80;99.90;;;;;;5011756;28;20471;-70
2021/10/04 10:47:37;;;;;;;7.15;5.10;;;14.90;99.90;;;;;;5012088;28;20026;-69
2021/10/04 10:50:07;;;;;;;5.70;4.80;;;15.00;99.90;;;;;;5011006;28;20022;-70
2021/10/04 10:52:34;;;;;;;5.60;5.10;;;14.90;99.90;;;;;;5011300;28;20053;-69
2021/10/04 10:55:03;;;;;;;7.05;4.95;;;14.80;99.90;;;;;;5011180;28;20113;-70
2021/10/04 10:58:02;;;;;;;6.60;5.03;;;14.80;99.90;;;;;;5013018;28;20022;-70
2021/10/04 11:00:40;;;;;;;8.57;6.55;;;14.90;99.90;;;;;;5011700;28;20117;-71
2021/10/04 11:03:12;;;;;;;5.97;5.45;;;14.90;99.90;;;;;;5010381;28;20049;-70
2021/10/04 11:05:37;;;;;;;;;;;14.90;99.90;;;;;;5012899;28;20022;-71
2021/10/04 11:08:18;;;;;;;6.20;4.95;;;15.00;99.90;;;;;;5010220;28;20373;-70
2021/10/04 11:10:51;;;;;;;5.70;4.40;;;15.00;99.90;;;;;;5012237;28;20125;-71
2021/10/04 11:13:32;;;;;;;5.15;4.65;;;15.10;99.90;;;;;;5011484;28;20324;-70
2021/10/04 11:16:05;;;;;;;5.22;4.72;;;15.00;99.90;;;;;;5010612;28;20029;-71
2021/10/04 11:18:46;;;;;;;8.43;5.30;;;14.80;99.90;;;;;;5012623;28;20025;-69
2021/10/04 11:21:15;;;;;;;6.50;5.88;;;15.10;99.90;;;;;;5011497;28;20112;-70
2021/10/04 11:23:49;;;;;;;5.20;4.25;;;15.10;99.90;;;;;;5011253;28;20355;-70
2021/10/04 11:26:25;;;;;;;7.63;4.65;;;15.10;99.90;;;;;;5011142;28;20026;-70
2021/10/04 11:28:54;;;;;;;5.03;4.45;;;15.30;99.90;;;;;;4995573;28;20026;-70
2021/10/04 11:31:22;;;;;;;5.75;4.32;;;15.30;99.90;;;;;;5011069;28;20486;-70
2021/10/04 11:33:49;;;;;;;6.35;3.97;;;15.20;99.90;;;;;;5011876;28;20030;-70
2021/10/04 11:36:17;;;;;;;4.20;3.80;;;15.40;99.90;;;;;;5010996;28;20447;-70
2021/10/04 11:38:52;;;;;;;4.20;3.78;;;15.40;99.90;;;;;;5012179;28;20028;-70
2021/10/04 11:41:29;;;;;;;4.20;3.67;;;15.50;99.90;;;;;;5012037;28;20468;-69
2021/10/04 11:43:57;;;;;;;4.15;3.75;;;15.80;99.90;;;;;;5010285;28;20046;-71
2021/10/04 11:46:27;;;;;;;7.40;3.50;;;16.00;99.90;;;;;;5011629;28;20018;-71
2021/10/04 11:49:04;;;;;;;5.45;3.45;;;16.10;99.90;;;;;;5009942;28;20021;-70
2021/10/04 11:51:33;;;;;;;6.03;3.97;;;16.30;99.90;;;;;;5010757;28;20026;-70
2021/10/04 11:53:59;;;;;;;11.50;4.07;;;16.30;99.90;;;;;;5010202;28;20470;-70
2021/10/04 11:56:25;;;;;;;2.80;2.58;;;16.30;99.90;;;;;;5010735;28;20018;-71
2021/10/04 11:58:54;;;;;;;14.18;3.58;;;16.20;99.90;;;;;;5010267;28;20184;-71
2021/10/04 12:01:46;;;;;;;5.97;3.47;;;16.40;99.90;;;;;;5012200;28;20073;-70
2021/10/04 12:04:13;;;;;;;11.27;3.85;;;16.50;99.90;;;;;;5011645;28;20187;-71
2021/10/04 12:06:44;;;;;;;6.05;3.13;;;16.60;99.90;;;;;;5011542;28;20397;-71
2021/10/04 12:09:21;;;;;;;8.52;2.90;;;16.30;99.90;;;;;;5009927;28;20455;-70
2021/10/04 12:11:58;;;;;;;5.45;2.70;;;16.40;99.90;;;;;;5010067;28;20045;-69
2021/10/04 12:14:26;;;;;;;3.33;2.83;;;16.50;99.90;;;;;;5010305;28;20347;-69
2021/10/04 12:16:58;;;;;;;3.95;2.50;;;16.30;99.90;;;;;;5009649;28;20091;-71
2021/10/04 12:19:25;;;;;;;3.67;2.78;;;16.10;99.90;;;;;;5011445;28;20038;-72
2021/10/04 12:21:52;;;;;;;7.78;2.45;;;16.20;99.90;;;;;;5010747;28;20093;-71
2021/10/04 12:24:20;;;;;;;2.65;2.00;;;16.30;99.90;;;;;;5009874;28;20022;-71
2021/10/04 12:26:53;;;;;;;5.07;2.28;;;16.10;99.90;;;;;;5009859;28;20091;-71
2021/10/04 12:29:44;;;;;;;2.88;1.95;;;16.10;99.90;;;;;;5028599;28;20441;-69
2021/10/04 12:32:20;;;;;;;2.38;2.00;;;15.90;99.90;;;;;;5028075;28;20034;-71
2021/10/04 12:35:26;;;;;;;2.35;1.70;;;16.00;99.90;;;;;;5028696;28;20048;-71
2021/10/04 12:37:56;;;;;;;3.75;1.52;;;16.10;99.90;;;;;;5022202;28;20041;-70
2021/10/04 12:40:28;;;;;;;4.78;1.90;;;16.10;99.90;;;;;;5028740;28;20033;-70
2021/10/04 12:43:14;;;;;;;2.95;1.40;;;15.90;99.90;;;;;;5027841;28;20048;-70
2021/10/04 12:45:52;;;;;;;1.65;1.40;;;15.90;99.90;;;;;;5028767;28;20096;-71
2021/10/04 12:48:18;;;;;;;4.57;1.80;;;15.90;99.90;;;;;;5028580;28;20022;-71
2021/10/04 12:50:47;;;;;;;1.65;1.30;;;16.00;99.90;;;;;;5028420;28;20045;-71
2021/10/04 12:53:24;;;;;;;2.38;1.85;;;15.80;99.90;;;;;;5027622;28;20490;-70